Aérodrome :
LOGIN :

S'inscrire | Disclaimer

   EN    FR    IT 

 










Légende :    VFR   VFR Marginal   IFR   IFR Intensif   IFR Très Intensif
Visi : 
Plafond : 
>= 8 km
>= 3000ft
5 à 8 km
1000 à 3000 ft
1500m à 5 km
500 à 1000 ft
800 à 1500m
200 à 500 ft
< 800m
< 200 ft
Symboles :   Orages  Brouillard  Fortes neiges  Fortes précipitations  Vent > 20 kt
SIGMETs :   Divers  Orages  Givrage  Turbulence  Onde Orograph.  Cendres Volcan.






- Altitude de l'aérodrome : 200 ft


EBBL - Klein Brogel AB

DERNIER METAR :
  • 100825Z 07005KT 9999 FEW160 28/17 Q1014 BLU BLU

METARs EXPIRÉS :
  • 100755Z 04004KT 9999 FEW280 27/17 Q1014 BLU BLU
  • 100725Z VRB02KT 9999 FEW280 25/17 Q1014 BLU BLU
  • 100709Z VRB02KT 9999 FEW280 24/17 Q1014 BLU BLU
  • 100655Z VRB02KT 9999 FEW280 23/17 Q1014 BLU BLU
  • 100625Z VRB02KT 9999 FEW160 SCT280 22/17 Q1014 BLU BLU
  • 100555Z 07003KT 9999 FEW160 SCT280 21/17 Q1014 BLU BLU

TAF TAF EBBL
Valide du 10 à 07h jusqu'au 10 à 16h UTC


100541Z 1007/1016 07005KT 9999 FEW160 SCT280
BECMG 1014/1016 SCT060 SCT140



MET'MAP, la Météo Aéronautique d'un coup d'oeil ! - Copyright ORBIFLY Décembre 2007 - Disclaimer

ORBIFLY MET'MAP TEAM :

Programmation & Développement : Alexandra Zaïnal
Sur une idée originale de : Baudouin d'Aumeries
Assistance à la programmation : Marc-Olivier Méhu
Soutien technique & logistique : Manuel Goepfert

Contact : metmap@orbifly.com




SOURCES & CREDITS :

   NOAA